sensor_id;sensor_type;location;lat;lon;timestamp;temperature;humidity
20714;DHT22;10518;50.742;4.226;2023-07-13T00:00:17;17.60;99.90
20714;DHT22;10518;50.742;4.226;2023-07-13T00:02:43;17.50;99.90
20714;DHT22;10518;50.742;4.226;2023-07-13T00:05:09;17.40;99.90
20714;DHT22;10518;50.742;4.226;2023-07-13T00:07:35;17.40;99.90
20714;DHT22;10518;50.742;4.226;2023-07-13T00:10:02;17.30;99.90
20714;DHT22;10518;50.742;4.226;2023-07-13T00:12:31;17.30;99.90
20714;DHT22;10518;50.742;4.226;2023-07-13T00:15:01;17.20;99.90
20714;DHT22;10518;50.742;4.226;2023-07-13T00:17:28;17.20;99.90
20714;DHT22;10518;50.742;4.226;2023-07-13T00:19:56;17.20;99.90
20714;DHT22;10518;50.742;4.226;2023-07-13T00:22:22;17.20;99.90
20714;DHT22;10518;50.742;4.226;2023-07-13T00:24:52;17.00;99.90
20714;DHT22;10518;50.742;4.226;2023-07-13T00:27:18;17.00;99.90
20714;DHT22;10518;50.742;4.226;2023-07-13T00:29:43;16.90;99.90
20714;DHT22;10518;50.742;4.226;2023-07-13T00:32:10;16.80;99.90
20714;DHT22;10518;50.742;4.226;2023-07-13T00:34:37;16.80;99.90
20714;DHT22;10518;50.742;4.226;2023-07-13T00:37:03;16.90;99.90
20714;DHT22;10518;50.742;4.226;2023-07-13T00:39:28;16.90;99.90
20714;DHT22;10518;50.742;4.226;2023-07-13T00:41:54;17.00;99.90
20714;DHT22;10518;50.742;4.226;2023-07-13T00:44:20;16.80;99.90
20714;DHT22;10518;50.742;4.226;2023-07-13T00:46:48;16.80;99.90
20714;DHT22;10518;50.742;4.226;2023-07-13T00:49:18;17.00;99.90
20714;DHT22;10518;50.742;4.226;2023-07-13T00:54:19;17.00;99.90
20714;DHT22;10518;50.742;4.226;2023-07-13T00:56:49;17.10;99.90
20714;DHT22;10518;50.742;4.226;2023-07-13T00:59:16;17.20;99.90
20714;DHT22;10518;50.742;4.226;2023-07-13T01:01:43;17.00;99.90
20714;DHT22;10518;50.742;4.226;2023-07-13T01:04:09;16.80;99.90
20714;DHT22;10518;50.742;4.226;2023-07-13T01:06:38;16.70;99.90
20714;DHT22;10518;50.742;4.226;2023-07-13T01:09:07;16.80;99.90
20714;DHT22;10518;50.742;4.226;2023-07-13T01:11:33;16.70;99.90
20714;DHT22;10518;50.742;4.226;2023-07-13T01:13:58;16.70;99.90
20714;DHT22;10518;50.742;4.226;2023-07-13T01:16:31;16.60;99.90
20714;DHT22;10518;50.742;4.226;2023-07-13T01:18:57;16.60;99.90
20714;DHT22;10518;50.742;4.226;2023-07-13T01:21:24;16.60;99.90
20714;DHT22;10518;50.742;4.226;2023-07-13T01:23:50;16.80;99.90
20714;DHT22;10518;50.742;4.226;2023-07-13T01:26:15;16.90;99.90
20714;DHT22;10518;50.742;4.226;2023-07-13T01:28:41;16.70;99.90
20714;DHT22;10518;50.742;4.226;2023-07-13T01:31:07;16.50;99.90
20714;DHT22;10518;50.742;4.226;2023-07-13T01:33:34;16.60;99.90
20714;DHT22;10518;50.742;4.226;2023-07-13T01:36:00;16.50;99.90
20714;DHT22;10518;50.742;4.226;2023-07-13T01:38:26;16.60;99.90
20714;DHT22;10518;50.742;4.226;2023-07-13T01:40:52;16.60;99.90
20714;DHT22;10518;50.742;4.226;2023-07-13T01:43:18;16.60;99.90
20714;DHT22;10518;50.742;4.226;2023-07-13T01:45:44;16.50;99.90
20714;DHT22;10518;50.742;4.226;2023-07-13T01:48:10;16.60;99.90
20714;DHT22;10518;50.742;4.226;2023-07-13T01:50:36;16.50;99.90
20714;DHT22;10518;50.742;4.226;2023-07-13T01:53:02;16.50;99.90
20714;DHT22;10518;50.742;4.226;2023-07-13T01:55:27;16.40;99.90
20714;DHT22;10518;50.742;4.226;2023-07-13T01:57:53;16.60;99.90
20714;DHT22;10518;50.742;4.226;2023-07-13T02:00:19;16.70;99.90
20714;DHT22;10518;50.742;4.226;2023-07-13T02:02:44;16.80;99.90
20714;DHT22;10518;50.742;4.226;2023-07-13T02:05:11;16.80;99.90
20714;DHT22;10518;50.742;4.226;2023-07-13T02:07:37;16.50;99.90
20714;DHT22;10518;50.742;4.226;2023-07-13T02:10:03;16.40;99.90
20714;DHT22;10518;50.742;4.226;2023-07-13T02:12:29;16.20;99.90
20714;DHT22;10518;50.742;4.226;2023-07-13T02:14:55;16.30;99.90
20714;DHT22;10518;50.742;4.226;2023-07-13T02:17:20;16.40;99.90
20714;DHT22;10518;50.742;4.226;2023-07-13T02:19:46;16.30;99.90
20714;DHT22;10518;50.742;4.226;2023-07-13T02:22:12;16.30;99.90
20714;DHT22;10518;50.742;4.226;2023-07-13T02:24:37;16.40;99.90
20714;DHT22;10518;50.742;4.226;2023-07-13T02:27:04;16.40;99.90
20714;DHT22;10518;50.742;4.226;2023-07-13T02:29:29;16.30;99.90
20714;DHT22;10518;50.742;4.226;2023-07-13T02:31:55;16.20;99.90
20714;DHT22;10518;50.742;4.226;2023-07-13T02:34:20;16.20;99.90
20714;DHT22;10518;50.742;4.226;2023-07-13T02:36:46;16.10;99.90
20714;DHT22;10518;50.742;4.226;2023-07-13T02:39:12;16.10;99.90
20714;DHT22;10518;50.742;4.226;2023-07-13T02:41:38;16.10;99.90
20714;DHT22;10518;50.742;4.226;2023-07-13T02:44:04;16.10;99.90
20714;DHT22;10518;50.742;4.226;2023-07-13T02:46:30;16.10;99.90
20714;DHT22;10518;50.742;4.226;2023-07-13T02:48:56;16.10;99.90
20714;DHT22;10518;50.742;4.226;2023-07-13T02:51:22;16.00;99.90
20714;DHT22;10518;50.742;4.226;2023-07-13T02:53:47;16.00;99.90
20714;DHT22;10518;50.742;4.226;2023-07-13T02:56:13;15.90;99.90
20714;DHT22;10518;50.742;4.226;2023-07-13T02:58:38;15.80;99.90
20714;DHT22;10518;50.742;4.226;2023-07-13T03:01:11;15.80;99.90
20714;DHT22;10518;50.742;4.226;2023-07-13T03:03:37;15.90;99.90
20714;DHT22;10518;50.742;4.226;2023-07-13T03:06:04;16.10;99.90
20714;DHT22;10518;50.742;4.226;2023-07-13T03:08:31;16.10;99.90
20714;DHT22;10518;50.742;4.226;2023-07-13T03:11:06;16.10;99.90
20714;DHT22;10518;50.742;4.226;2023-07-13T03:13:32;15.90;99.90
20714;DHT22;10518;50.742;4.226;2023-07-13T03:15:58;15.90;99.90
20714;DHT22;10518;50.742;4.226;2023-07-13T03:18:25;16.00;99.90
20714;DHT22;10518;50.742;4.226;2023-07-13T03:20:51;16.00;99.90
20714;DHT22;10518;50.742;4.226;2023-07-13T03:23:17;15.90;99.90
20714;DHT22;10518;50.742;4.226;2023-07-13T03:25:42;15.90;99.90
20714;DHT22;10518;50.742;4.226;2023-07-13T03:28:10;15.90;99.90
20714;DHT22;10518;50.742;4.226;2023-07-13T03:30:36;16.10;99.90
20714;DHT22;10518;50.742;4.226;2023-07-13T03:33:02;16.10;99.90
20714;DHT22;10518;50.742;4.226;2023-07-13T03:35:27;16.10;99.90
20714;DHT22;10518;50.742;4.226;2023-07-13T03:37:53;16.00;99.90
20714;DHT22;10518;50.742;4.226;2023-07-13T03:40:19;16.10;99.90
20714;DHT22;10518;50.742;4.226;2023-07-13T03:42:44;16.10;99.90
20714;DHT22;10518;50.742;4.226;2023-07-13T03:45:10;15.90;99.90
20714;DHT22;10518;50.742;4.226;2023-07-13T03:47:35;16.00;99.90
20714;DHT22;10518;50.742;4.226;2023-07-13T03:50:01;16.00;99.90
20714;DHT22;10518;50.742;4.226;2023-07-13T03:52:26;16.00;99.90
20714;DHT22;10518;50.742;4.226;2023-07-13T03:54:52;16.00;99.90
20714;DHT22;10518;50.742;4.226;2023-07-13T03:57:18;16.00;99.90
20714;DHT22;10518;50.742;4.226;2023-07-13T03:59:44;16.00;99.90
20714;DHT22;10518;50.742;4.226;2023-07-13T04:02:09;16.00;99.90
20714;DHT22;10518;50.742;4.226;2023-07-13T04:04:35;16.10;99.90
20714;DHT22;10518;50.742;4.226;2023-07-13T04:07:01;16.20;99.90
20714;DHT22;10518;50.742;4.226;2023-07-13T04:09:26;16.20;99.90
20714;DHT22;10518;50.742;4.226;2023-07-13T04:11:52;16.20;99.90
20714;DHT22;10518;50.742;4.226;2023-07-13T04:14:17;16.50;99.90
20714;DHT22;10518;50.742;4.226;2023-07-13T04:16:43;16.50;99.90
20714;DHT22;10518;50.742;4.226;2023-07-13T04:19:09;16.70;99.90
20714;DHT22;10518;50.742;4.226;2023-07-13T04:21:36;16.50;99.90
20714;DHT22;10518;50.742;4.226;2023-07-13T04:24:03;16.40;99.90
20714;DHT22;10518;50.742;4.226;2023-07-13T04:26:29;16.60;99.90
20714;DHT22;10518;50.742;4.226;2023-07-13T04:28:56;16.50;99.90
20714;DHT22;10518;50.742;4.226;2023-07-13T04:31:21;16.60;99.90
20714;DHT22;10518;50.742;4.226;2023-07-13T04:33:48;16.50;99.90
20714;DHT22;10518;50.742;4.226;2023-07-13T04:36:14;16.80;99.90
20714;DHT22;10518;50.742;4.226;2023-07-13T04:38:40;16.90;99.90
20714;DHT22;10518;50.742;4.226;2023-07-13T04:41:07;16.80;99.90
20714;DHT22;10518;50.742;4.226;2023-07-13T04:43:33;16.80;99.90
20714;DHT22;10518;50.742;4.226;2023-07-13T04:46:07;16.70;99.90
20714;DHT22;10518;50.742;4.226;2023-07-13T04:48:33;16.70;99.90
20714;DHT22;10518;50.742;4.226;2023-07-13T04:51:00;16.90;99.90
20714;DHT22;10518;50.742;4.226;2023-07-13T04:53:26;16.80;99.90
20714;DHT22;10518;50.742;4.226;2023-07-13T04:55:52;16.80;99.90
20714;DHT22;10518;50.742;4.226;2023-07-13T04:58:18;17.00;99.90
20714;DHT22;10518;50.742;4.226;2023-07-13T05:00:43;17.00;99.90
20714;DHT22;10518;50.742;4.226;2023-07-13T05:03:09;17.20;99.90
20714;DHT22;10518;50.742;4.226;2023-07-13T05:05:35;17.50;99.90
20714;DHT22;10518;50.742;4.226;2023-07-13T05:08:00;17.50;99.90
20714;DHT22;10518;50.742;4.226;2023-07-13T05:10:26;17.50;99.90
20714;DHT22;10518;50.742;4.226;2023-07-13T05:12:51;17.60;99.90
20714;DHT22;10518;50.742;4.226;2023-07-13T05:15:17;17.70;99.90
20714;DHT22;10518;50.742;4.226;2023-07-13T05:17:47;17.70;99.90
20714;DHT22;10518;50.742;4.226;2023-07-13T05:20:13;17.80;99.90
20714;DHT22;10518;50.742;4.226;2023-07-13T05:22:38;17.90;99.90
20714;DHT22;10518;50.742;4.226;2023-07-13T05:25:05;18.10;99.90
20714;DHT22;10518;50.742;4.226;2023-07-13T05:27:31;18.00;99.90
20714;DHT22;10518;50.742;4.226;2023-07-13T05:29:57;18.30;99.90
20714;DHT22;10518;50.742;4.226;2023-07-13T05:32:23;18.50;99.90
20714;DHT22;10518;50.742;4.226;2023-07-13T05:34:48;18.60;99.90
20714;DHT22;10518;50.742;4.226;2023-07-13T05:37:14;18.60;99.90
20714;DHT22;10518;50.742;4.226;2023-07-13T05:39:39;18.70;99.90
20714;DHT22;10518;50.742;4.226;2023-07-13T05:42:06;18.70;99.90
20714;DHT22;10518;50.742;4.226;2023-07-13T05:44:31;18.50;99.90
20714;DHT22;10518;50.742;4.226;2023-07-13T05:46:57;18.50;99.90
20714;DHT22;10518;50.742;4.226;2023-07-13T05:49:23;18.40;99.90
20714;DHT22;10518;50.742;4.226;2023-07-13T05:51:48;18.50;99.90
20714;DHT22;10518;50.742;4.226;2023-07-13T05:54:14;18.70;99.90
20714;DHT22;10518;50.742;4.226;2023-07-13T05:56:39;18.60;99.90
20714;DHT22;10518;50.742;4.226;2023-07-13T05:59:05;18.80;99.90
20714;DHT22;10518;50.742;4.226;2023-07-13T06:01:31;18.80;99.90
20714;DHT22;10518;50.742;4.226;2023-07-13T06:03:57;18.90;99.90
20714;DHT22;10518;50.742;4.226;2023-07-13T06:06:23;18.80;99.90
20714;DHT22;10518;50.742;4.226;2023-07-13T06:08:48;18.80;99.90
20714;DHT22;10518;50.742;4.226;2023-07-13T06:11:19;19.10;99.90
20714;DHT22;10518;50.742;4.226;2023-07-13T06:13:45;19.20;99.90
20714;DHT22;10518;50.742;4.226;2023-07-13T06:16:12;19.40;99.90
20714;DHT22;10518;50.742;4.226;2023-07-13T06:18:39;19.50;99.90
20714;DHT22;10518;50.742;4.226;2023-07-13T06:21:10;19.70;99.90
20714;DHT22;10518;50.742;4.226;2023-07-13T06:23:37;19.80;99.90
20714;DHT22;10518;50.742;4.226;2023-07-13T06:26:04;20.00;99.90
20714;DHT22;10518;50.742;4.226;2023-07-13T06:28:30;19.90;99.90
20714;DHT22;10518;50.742;4.226;2023-07-13T06:30:57;19.90;99.90
20714;DHT22;10518;50.742;4.226;2023-07-13T06:33:24;19.80;99.90
20714;DHT22;10518;50.742;4.226;2023-07-13T06:35:49;20.00;99.90
20714;DHT22;10518;50.742;4.226;2023-07-13T06:38:15;20.10;99.90
20714;DHT22;10518;50.742;4.226;2023-07-13T06:40:41;19.90;99.90
20714;DHT22;10518;50.742;4.226;2023-07-13T06:43:07;19.70;99.90
20714;DHT22;10518;50.742;4.226;2023-07-13T06:45:40;19.50;99.90
20714;DHT22;10518;50.742;4.226;2023-07-13T06:48:06;19.50;99.90
20714;DHT22;10518;50.742;4.226;2023-07-13T06:50:33;19.70;99.90
20714;DHT22;10518;50.742;4.226;2023-07-13T06:52:59;19.70;99.90
20714;DHT22;10518;50.742;4.226;2023-07-13T06:55:25;19.50;99.90
20714;DHT22;10518;50.742;4.226;2023-07-13T06:57:51;19.90;99.90
20714;DHT22;10518;50.742;4.226;2023-07-13T07:00:17;19.70;99.90
20714;DHT22;10518;50.742;4.226;2023-07-13T07:02:43;19.70;99.90
20714;DHT22;10518;50.742;4.226;2023-07-13T07:05:08;19.80;99.90
20714;DHT22;10518;50.742;4.226;2023-07-13T07:07:34;19.90;99.90
20714;DHT22;10518;50.742;4.226;2023-07-13T07:10:00;20.20;99.90
20714;DHT22;10518;50.742;4.226;2023-07-13T07:12:25;20.50;99.90
20714;DHT22;10518;50.742;4.226;2023-07-13T07:14:51;20.50;99.90
20714;DHT22;10518;50.742;4.226;2023-07-13T07:17:17;20.50;99.90
20714;DHT22;10518;50.742;4.226;2023-07-13T07:19:42;20.60;99.90
20714;DHT22;10518;50.742;4.226;2023-07-13T07:22:08;20.60;99.90
20714;DHT22;10518;50.742;4.226;2023-07-13T07:24:33;20.70;99.90
20714;DHT22;10518;50.742;4.226;2023-07-13T07:26:59;20.60;99.90
20714;DHT22;10518;50.742;4.226;2023-07-13T07:29:25;20.50;99.90
20714;DHT22;10518;50.742;4.226;2023-07-13T07:31:52;20.80;99.90
20714;DHT22;10518;50.742;4.226;2023-07-13T07:34:17;20.80;99.90
20714;DHT22;10518;50.742;4.226;2023-07-13T07:36:43;20.70;99.90
20714;DHT22;10518;50.742;4.226;2023-07-13T07:39:08;21.10;99.90
20714;DHT22;10518;50.742;4.226;2023-07-13T07:41:34;21.20;99.90
20714;DHT22;10518;50.742;4.226;2023-07-13T07:43:59;21.40;99.90
20714;DHT22;10518;50.742;4.226;2023-07-13T07:46:25;21.60;99.90
20714;DHT22;10518;50.742;4.226;2023-07-13T07:48:51;21.90;99.90
20714;DHT22;10518;50.742;4.226;2023-07-13T07:51:16;22.10;99.90
20714;DHT22;10518;50.742;4.226;2023-07-13T07:53:42;22.30;99.90
20714;DHT22;10518;50.742;4.226;2023-07-13T07:56:08;22.60;99.90
20714;DHT22;10518;50.742;4.226;2023-07-13T07:58:35;22.50;99.90
20714;DHT22;10518;50.742;4.226;2023-07-13T08:01:04;22.50;99.90
20714;DHT22;10518;50.742;4.226;2023-07-13T08:03:30;23.00;99.90
20714;DHT22;10518;50.742;4.226;2023-07-13T08:05:56;23.60;99.90
20714;DHT22;10518;50.742;4.226;2023-07-13T08:08:21;23.30;99.90
20714;DHT22;10518;50.742;4.226;2023-07-13T08:10:47;23.80;99.90
20714;DHT22;10518;50.742;4.226;2023-07-13T08:13:13;24.00;99.90
20714;DHT22;10518;50.742;4.226;2023-07-13T08:15:38;24.00;99.90
20714;DHT22;10518;50.742;4.226;2023-07-13T08:18:04;24.00;99.90
20714;DHT22;10518;50.742;4.226;2023-07-13T08:20:29;24.50;99.90
20714;DHT22;10518;50.742;4.226;2023-07-13T08:22:55;24.80;99.90
20714;DHT22;10518;50.742;4.226;2023-07-13T08:25:20;24.80;99.90
20714;DHT22;10518;50.742;4.226;2023-07-13T08:27:47;24.40;99.90
20714;DHT22;10518;50.742;4.226;2023-07-13T08:30:12;24.40;99.90
20714;DHT22;10518;50.742;4.226;2023-07-13T08:32:38;24.40;99.90
20714;DHT22;10518;50.742;4.226;2023-07-13T08:35:05;24.30;99.90
20714;DHT22;10518;50.742;4.226;2023-07-13T08:37:30;23.80;99.90
20714;DHT22;10518;50.742;4.226;2023-07-13T08:39:56;24.10;99.90
20714;DHT22;10518;50.742;4.226;2023-07-13T08:42:42;24.30;99.90
20714;DHT22;10518;50.742;4.226;2023-07-13T08:48:26;24.30;99.90
20714;DHT22;10518;50.742;4.226;2023-07-13T08:50:57;24.30;99.90
20714;DHT22;10518;50.742;4.226;2023-07-13T08:53:28;24.30;99.90
20714;DHT22;10518;50.742;4.226;2023-07-13T08:55:58;24.20;99.90
20714;DHT22;10518;50.742;4.226;2023-07-13T08:58:25;24.00;99.90
20714;DHT22;10518;50.742;4.226;2023-07-13T09:01:18;23.80;99.90
20714;DHT22;10518;50.742;4.226;2023-07-13T09:04:16;23.90;99.90
20714;DHT22;10518;50.742;4.226;2023-07-13T09:12:11;24.20;99.90
20714;DHT22;10518;50.742;4.226;2023-07-13T09:14:46;24.40;99.90
20714;DHT22;10518;50.742;4.226;2023-07-13T09:17:20;24.60;99.90
20714;DHT22;10518;50.742;4.226;2023-07-13T09:19:59;24.60;99.90
20714;DHT22;10518;50.742;4.226;2023-07-13T09:22:27;24.80;99.90
20714;DHT22;10518;50.742;4.226;2023-07-13T09:27:43;24.70;99.90
20714;DHT22;10518;50.742;4.226;2023-07-13T09:32:40;25.20;99.90
20714;DHT22;10518;50.742;4.226;2023-07-13T09:35:19;25.30;99.90
20714;DHT22;10518;50.742;4.226;2023-07-13T09:37:46;25.40;99.90
20714;DHT22;10518;50.742;4.226;2023-07-13T09:40:22;25.50;99.90
20714;DHT22;10518;50.742;4.226;2023-07-13T09:42:52;25.80;99.90
20714;DHT22;10518;50.742;4.226;2023-07-13T09:45:27;26.00;99.90
20714;DHT22;10518;50.742;4.226;2023-07-13T09:47:59;25.90;99.90
20714;DHT22;10518;50.742;4.226;2023-07-13T09:50:28;25.50;99.90
20714;DHT22;10518;50.742;4.226;2023-07-13T09:52:55;25.70;99.90
20714;DHT22;10518;50.742;4.226;2023-07-13T09:57:49;25.80;99.90
20714;DHT22;10518;50.742;4.226;2023-07-13T10:00:27;25.80;99.90
20714;DHT22;10518;50.742;4.226;2023-07-13T10:03:27;25.70;99.90
20714;DHT22;10518;50.742;4.226;2023-07-13T10:05:53;25.80;99.90
20714;DHT22;10518;50.742;4.226;2023-07-13T10:08:26;25.40;99.90
20714;DHT22;10518;50.742;4.226;2023-07-13T10:11:10;25.40;99.90
20714;DHT22;10518;50.742;4.226;2023-07-13T10:13:40;25.60;99.90
20714;DHT22;10518;50.742;4.226;2023-07-13T10:16:07;25.40;99.90
20714;DHT22;10518;50.742;4.226;2023-07-13T10:18:59;25.00;99.90
20714;DHT22;10518;50.742;4.226;2023-07-13T10:21:28;24.90;99.90
20714;DHT22;10518;50.742;4.226;2023-07-13T10:27:05;25.20;99.90
20714;DHT22;10518;50.742;4.226;2023-07-13T10:30:28;25.60;99.90
20714;DHT22;10518;50.742;4.226;2023-07-13T10:32:28;25.50;99.90
20714;DHT22;10518;50.742;4.226;2023-07-13T10:34:54;25.70;99.90
20714;DHT22;10518;50.742;4.226;2023-07-13T10:37:26;25.90;99.90
20714;DHT22;10518;50.742;4.226;2023-07-13T10:39:55;25.80;99.90
20714;DHT22;10518;50.742;4.226;2023-07-13T10:42:43;25.80;99.90
20714;DHT22;10518;50.742;4.226;2023-07-13T10:45:19;25.90;99.90
20714;DHT22;10518;50.742;4.226;2023-07-13T10:47:45;26.00;99.90
20714;DHT22;10518;50.742;4.226;2023-07-13T10:50:19;26.20;99.90
20714;DHT22;10518;50.742;4.226;2023-07-13T10:52:46;26.10;99.90
20714;DHT22;10518;50.742;4.226;2023-07-13T10:58:01;25.20;99.90
20714;DHT22;10518;50.742;4.226;2023-07-13T11:00:30;25.20;99.90
20714;DHT22;10518;50.742;4.226;2023-07-13T11:02:57;25.40;99.90
20714;DHT22;10518;50.742;4.226;2023-07-13T11:05:31;25.50;99.90
20714;DHT22;10518;50.742;4.226;2023-07-13T11:09:17;25.70;99.90
20714;DHT22;10518;50.742;4.226;2023-07-13T11:11:32;25.90;99.90
20714;DHT22;10518;50.742;4.226;2023-07-13T11:14:01;25.50;99.90
20714;DHT22;10518;50.742;4.226;2023-07-13T11:16:45;25.40;99.90
20714;DHT22;10518;50.742;4.226;2023-07-13T11:24:52;25.40;99.90
20714;DHT22;10518;50.742;4.226;2023-07-13T11:27:42;25.80;99.90
20714;DHT22;10518;50.742;4.226;2023-07-13T11:32:33;26.00;99.90
20714;DHT22;10518;50.742;4.226;2023-07-13T11:35:00;26.10;99.90
20714;DHT22;10518;50.742;4.226;2023-07-13T11:37:26;26.10;99.90
20714;DHT22;10518;50.742;4.226;2023-07-13T11:39:54;25.90;99.90
20714;DHT22;10518;50.742;4.226;2023-07-13T11:42:21;25.30;99.90
20714;DHT22;10518;50.742;4.226;2023-07-13T11:44:50;25.00;99.90
20714;DHT22;10518;50.742;4.226;2023-07-13T11:47:21;24.50;99.90
20714;DHT22;10518;50.742;4.226;2023-07-13T11:49:55;24.50;99.90
20714;DHT22;10518;50.742;4.226;2023-07-13T11:52:35;24.80;99.90
20714;DHT22;10518;50.742;4.226;2023-07-13T11:55:08;24.90;99.90
20714;DHT22;10518;50.742;4.226;2023-07-13T11:57:44;24.90;99.90
20714;DHT22;10518;50.742;4.226;2023-07-13T12:00:14;25.30;99.90
20714;DHT22;10518;50.742;4.226;2023-07-13T12:02:51;25.60;99.90
20714;DHT22;10518;50.742;4.226;2023-07-13T12:05:18;25.60;99.90
20714;DHT22;10518;50.742;4.226;2023-07-13T12:07:46;25.60;99.90
20714;DHT22;10518;50.742;4.226;2023-07-13T12:10:22;25.70;99.90
20714;DHT22;10518;50.742;4.226;2023-07-13T12:12:52;25.50;99.90
20714;DHT22;10518;50.742;4.226;2023-07-13T12:15:18;25.60;99.90
20714;DHT22;10518;50.742;4.226;2023-07-13T12:17:45;25.60;99.90
20714;DHT22;10518;50.742;4.226;2023-07-13T12:20:20;25.50;99.90
20714;DHT22;10518;50.742;4.226;2023-07-13T12:22:47;25.50;99.90
20714;DHT22;10518;50.742;4.226;2023-07-13T12:25:14;25.40;99.90
20714;DHT22;10518;50.742;4.226;2023-07-13T12:27:40;25.40;99.90
20714;DHT22;10518;50.742;4.226;2023-07-13T12:30:26;25.10;99.90
20714;DHT22;10518;50.742;4.226;2023-07-13T12:32:59;24.70;99.90
20714;DHT22;10518;50.742;4.226;2023-07-13T12:35:28;24.20;99.90
20714;DHT22;10518;50.742;4.226;2023-07-13T12:37:57;23.50;99.90
20714;DHT22;10518;50.742;4.226;2023-07-13T12:40:32;22.80;99.90
20714;DHT22;10518;50.742;4.226;2023-07-13T12:42:58;22.30;99.90
20714;DHT22;10518;50.742;4.226;2023-07-13T12:45:25;21.90;99.90
20714;DHT22;10518;50.742;4.226;2023-07-13T12:47:58;21.70;99.90
20714;DHT22;10518;50.742;4.226;2023-07-13T12:50:30;21.90;99.90
20714;DHT22;10518;50.742;4.226;2023-07-13T12:53:01;22.10;99.90
20714;DHT22;10518;50.742;4.226;2023-07-13T12:55:28;22.50;99.90
20714;DHT22;10518;50.742;4.226;2023-07-13T12:57:58;22.50;99.90
20714;DHT22;10518;50.742;4.226;2023-07-13T13:00:30;22.90;99.90
20714;DHT22;10518;50.742;4.226;2023-07-13T13:05:46;23.50;99.90
20714;DHT22;10518;50.742;4.226;2023-07-13T13:08:12;23.70;99.90
20714;DHT22;10518;50.742;4.226;2023-07-13T13:10:38;23.80;99.90
20714;DHT22;10518;50.742;4.226;2023-07-13T13:13:04;24.10;99.90
20714;DHT22;10518;50.742;4.226;2023-07-13T13:15:30;24.20;99.90
20714;DHT22;10518;50.742;4.226;2023-07-13T13:17:56;24.40;99.90
20714;DHT22;10518;50.742;4.226;2023-07-13T13:20:24;24.70;99.90
20714;DHT22;10518;50.742;4.226;2023-07-13T13:22:51;24.70;99.90
20714;DHT22;10518;50.742;4.226;2023-07-13T13:25:17;24.70;99.90
20714;DHT22;10518;50.742;4.226;2023-07-13T13:27:43;24.70;99.90
20714;DHT22;10518;50.742;4.226;2023-07-13T13:30:16;24.80;99.90
20714;DHT22;10518;50.742;4.226;2023-07-13T13:32:43;24.90;99.90
20714;DHT22;10518;50.742;4.226;2023-07-13T13:35:17;25.10;99.90
20714;DHT22;10518;50.742;4.226;2023-07-13T13:37:44;25.20;99.90
20714;DHT22;10518;50.742;4.226;2023-07-13T13:40:21;25.40;99.90
20714;DHT22;10518;50.742;4.226;2023-07-13T13:42:48;25.60;99.90
20714;DHT22;10518;50.742;4.226;2023-07-13T13:45:14;25.60;99.90
20714;DHT22;10518;50.742;4.226;2023-07-13T13:47:41;25.50;99.90
20714;DHT22;10518;50.742;4.226;2023-07-13T13:52:40;25.50;99.90
20714;DHT22;10518;50.742;4.226;2023-07-13T13:55:16;25.40;99.90
20714;DHT22;10518;50.742;4.226;2023-07-13T13:57:44;25.40;99.90
20714;DHT22;10518;50.742;4.226;2023-07-13T14:00:11;25.30;99.90
20714;DHT22;10518;50.742;4.226;2023-07-13T14:02:40;25.30;99.90
20714;DHT22;10518;50.742;4.226;2023-07-13T14:05:09;25.30;99.90
20714;DHT22;10518;50.742;4.226;2023-07-13T14:07:37;25.00;99.90
20714;DHT22;10518;50.742;4.226;2023-07-13T14:10:13;24.80;99.90
20714;DHT22;10518;50.742;4.226;2023-07-13T14:12:41;24.40;99.90
20714;DHT22;10518;50.742;4.226;2023-07-13T14:15:35;24.10;99.90
20714;DHT22;10518;50.742;4.226;2023-07-13T14:17:59;23.50;99.90
20714;DHT22;10518;50.742;4.226;2023-07-13T14:20:25;23.00;99.90
20714;DHT22;10518;50.742;4.226;2023-07-13T14:22:52;22.50;99.90
20714;DHT22;10518;50.742;4.226;2023-07-13T14:25:19;22.20;99.90
20714;DHT22;10518;50.742;4.226;2023-07-13T14:27:48;22.00;99.90
20714;DHT22;10518;50.742;4.226;2023-07-13T14:30:17;21.90;99.90
20714;DHT22;10518;50.742;4.226;2023-07-13T14:32:43;21.80;99.90
20714;DHT22;10518;50.742;4.226;2023-07-13T14:35:13;21.70;99.90
20714;DHT22;10518;50.742;4.226;2023-07-13T14:37:40;21.70;99.90
20714;DHT22;10518;50.742;4.226;2023-07-13T14:40:32;21.60;99.90
20714;DHT22;10518;50.742;4.226;2023-07-13T14:42:58;21.70;99.90
20714;DHT22;10518;50.742;4.226;2023-07-13T14:45:24;21.70;99.90
20714;DHT22;10518;50.742;4.226;2023-07-13T14:47:50;21.80;99.90
20714;DHT22;10518;50.742;4.226;2023-07-13T14:50:22;21.90;99.90
20714;DHT22;10518;50.742;4.226;2023-07-13T14:52:49;22.00;99.90
20714;DHT22;10518;50.742;4.226;2023-07-13T14:55:17;22.10;99.90
20714;DHT22;10518;50.742;4.226;2023-07-13T14:57:42;22.20;99.90
20714;DHT22;10518;50.742;4.226;2023-07-13T15:00:16;22.50;99.90
20714;DHT22;10518;50.742;4.226;2023-07-13T15:02:45;22.50;99.90
20714;DHT22;10518;50.742;4.226;2023-07-13T15:05:21;22.50;99.90
20714;DHT22;10518;50.742;4.226;2023-07-13T15:07:48;22.80;99.90
20714;DHT22;10518;50.742;4.226;2023-07-13T15:10:18;23.20;99.90
20714;DHT22;10518;50.742;4.226;2023-07-13T15:12:44;23.40;99.90
20714;DHT22;10518;50.742;4.226;2023-07-13T15:15:10;23.50;99.90
20714;DHT22;10518;50.742;4.226;2023-07-13T15:17:38;23.70;99.90
20714;DHT22;10518;50.742;4.226;2023-07-13T15:20:26;23.90;99.90
20714;DHT22;10518;50.742;4.226;2023-07-13T15:22:53;24.20;99.90
20714;DHT22;10518;50.742;4.226;2023-07-13T15:25:22;24.30;99.90
20714;DHT22;10518;50.742;4.226;2023-07-13T15:27:47;24.20;99.90
20714;DHT22;10518;50.742;4.226;2023-07-13T15:30:16;24.40;99.90
20714;DHT22;10518;50.742;4.226;2023-07-13T15:32:42;24.40;99.90
20714;DHT22;10518;50.742;4.226;2023-07-13T15:35:21;24.10;99.90
20714;DHT22;10518;50.742;4.226;2023-07-13T15:37:48;24.10;99.90
20714;DHT22;10518;50.742;4.226;2023-07-13T15:40:15;24.30;99.90
20714;DHT22;10518;50.742;4.226;2023-07-13T15:42:42;24.60;99.90
20714;DHT22;10518;50.742;4.226;2023-07-13T15:45:19;24.40;99.90
20714;DHT22;10518;50.742;4.226;2023-07-13T15:47:47;24.40;99.90
20714;DHT22;10518;50.742;4.226;2023-07-13T15:50:20;24.00;99.90
20714;DHT22;10518;50.742;4.226;2023-07-13T15:52:50;23.90;99.90
20714;DHT22;10518;50.742;4.226;2023-07-13T15:55:16;24.20;99.90
20714;DHT22;10518;50.742;4.226;2023-07-13T15:57:47;24.50;99.90
20714;DHT22;10518;50.742;4.226;2023-07-13T16:00:24;24.70;99.90
20714;DHT22;10518;50.742;4.226;2023-07-13T16:02:50;24.80;99.90
20714;DHT22;10518;50.742;4.226;2023-07-13T16:05:18;24.80;99.90
20714;DHT22;10518;50.742;4.226;2023-07-13T16:07:47;24.90;99.90
20714;DHT22;10518;50.742;4.226;2023-07-13T16:10:30;24.70;99.90
20714;DHT22;10518;50.742;4.226;2023-07-13T16:12:58;24.80;99.90
20714;DHT22;10518;50.742;4.226;2023-07-13T16:15:24;24.80;99.90